createdAt,value
2017-07-26T00:00:25.896Z,89.00
2017-07-26T00:02:54.206Z,88.90
2017-07-26T00:05:22.521Z,89.00
2017-07-26T00:07:50.855Z,89.00
2017-07-26T00:10:19.172Z,89.70
2017-07-26T00:12:47.500Z,88.70
2017-07-26T00:15:15.041Z,88.70
2017-07-26T00:17:43.368Z,89.40
2017-07-26T00:20:11.676Z,89.50
2017-07-26T00:22:40.010Z,89.50
2017-07-26T00:25:08.320Z,89.20
2017-07-26T00:27:36.638Z,89.10
2017-07-26T00:30:04.965Z,89.30
2017-07-26T00:32:33.288Z,89.40
2017-07-26T00:35:01.617Z,89.40
2017-07-26T00:37:29.932Z,89.20
2017-07-26T00:39:58.284Z,89.10
2017-07-26T00:42:26.602Z,89.30
2017-07-26T00:44:54.950Z,89.40
2017-07-26T00:47:23.259Z,89.40
2017-07-26T00:49:51.599Z,89.50
2017-07-26T00:52:19.919Z,89.60
2017-07-26T00:54:48.252Z,89.60
2017-07-26T00:57:16.562Z,89.60
2017-07-26T00:59:44.888Z,89.30
2017-07-26T01:02:13.231Z,89.30
2017-07-26T01:04:41.555Z,89.70
2017-07-26T01:07:09.892Z,89.20
2017-07-26T01:09:38.205Z,89.20
2017-07-26T01:12:06.547Z,89.30
2017-07-26T01:14:34.861Z,89.30
2017-07-26T01:17:03.207Z,89.40
2017-07-26T01:19:31.534Z,89.40
2017-07-26T01:21:59.859Z,89.40
2017-07-26T01:24:28.201Z,89.30
2017-07-26T01:26:56.527Z,89.40
2017-07-26T01:29:24.937Z,89.40
2017-07-26T01:31:53.254Z,89.50
2017-07-26T01:34:21.591Z,89.40
2017-07-26T01:36:49.911Z,89.50
2017-07-26T01:39:18.255Z,89.60
2017-07-26T01:41:45.805Z,89.60
2017-07-26T01:44:14.156Z,89.70
2017-07-26T01:46:42.475Z,89.60
2017-07-26T01:49:10.853Z,89.50
2017-07-26T01:51:39.171Z,89.50
2017-07-26T01:54:07.484Z,89.40
2017-07-26T01:56:35.828Z,89.10
2017-07-26T01:59:04.134Z,89.00
2017-07-26T02:01:32.466Z,89.00
2017-07-26T02:04:00.780Z,88.70
2017-07-26T02:06:29.114Z,88.80
2017-07-26T02:08:57.424Z,88.80
2017-07-26T02:11:25.761Z,88.80
2017-07-26T02:13:54.087Z,88.90
2017-07-26T02:16:22.431Z,88.90
2017-07-26T02:18:50.755Z,89.00
2017-07-26T02:21:19.075Z,89.00
2017-07-26T02:23:47.408Z,89.00
2017-07-26T02:26:15.732Z,89.20
2017-07-26T02:28:44.076Z,89.20
2017-07-26T02:31:12.403Z,89.20
2017-07-26T02:33:40.737Z,89.90
2017-07-26T02:36:09.071Z,90.10
2017-07-26T02:38:37.416Z,89.60
2017-07-26T02:41:05.747Z,89.70
2017-07-26T02:43:34.095Z,89.70
2017-07-26T02:46:01.646Z,89.70
2017-07-26T02:48:29.969Z,90.20
2017-07-26T02:50:58.320Z,89.70
2017-07-26T02:53:26.635Z,89.60
2017-07-26T02:55:54.973Z,89.80
2017-07-26T02:58:23.294Z,89.60
2017-07-26T03:00:51.631Z,89.40
2017-07-26T03:03:19.183Z,89.40
2017-07-26T03:05:47.527Z,89.00
2017-07-26T03:08:15.847Z,89.10
2017-07-26T03:10:44.183Z,89.40
2017-07-26T03:13:12.503Z,89.40
2017-07-26T03:15:40.095Z,89.40
2017-07-26T03:18:08.411Z,89.40
2017-07-26T03:20:36.726Z,89.40
2017-07-26T03:23:05.067Z,89.60
2017-07-26T03:25:33.382Z,90.00
2017-07-26T03:28:01.727Z,89.50
2017-07-26T03:30:30.058Z,89.40
2017-07-26T03:32:58.390Z,89.40
2017-07-26T03:35:26.708Z,89.40
2017-07-26T03:37:55.048Z,89.30
2017-07-26T03:40:23.369Z,89.30
2017-07-26T03:42:51.708Z,89.10
2017-07-26T03:45:20.023Z,89.10
2017-07-26T03:47:48.360Z,89.20
2017-07-26T03:50:16.676Z,88.90
2017-07-26T03:52:45.020Z,88.40
2017-07-26T03:55:13.343Z,88.50
2017-07-26T03:57:41.669Z,88.70
2017-07-26T04:00:10.011Z,88.90
2017-07-26T04:02:38.331Z,88.70
2017-07-26T04:05:06.674Z,88.80
2017-07-26T04:07:35.000Z,89.00
2017-07-26T04:10:03.340Z,89.00
2017-07-26T04:12:31.664Z,88.90
2017-07-26T04:14:59.259Z,88.80
2017-07-26T04:17:27.575Z,88.30
2017-07-26T04:19:55.916Z,88.10
2017-07-26T04:22:24.231Z,88.10
2017-07-26T04:24:52.567Z,88.10
2017-07-26T04:27:20.893Z,88.10
2017-07-26T04:29:49.230Z,88.40
2017-07-26T04:32:17.550Z,88.70
2017-07-26T04:34:45.891Z,88.90
2017-07-26T04:37:14.200Z,88.90
2017-07-26T04:39:42.515Z,89.10
2017-07-26T04:42:10.860Z,89.00
2017-07-26T04:44:39.180Z,89.00
2017-07-26T04:47:07.516Z,89.10
2017-07-26T04:49:35.826Z,89.00
2017-07-26T04:52:03.394Z,88.90
2017-07-26T04:54:31.716Z,88.80
2017-07-26T04:57:00.050Z,88.90
2017-07-26T04:59:28.355Z,88.70
2017-07-26T05:01:56.692Z,88.60
2017-07-26T05:04:25.016Z,88.40
2017-07-26T05:06:53.355Z,88.10
2017-07-26T05:09:21.691Z,87.80
2017-07-26T05:11:50.053Z,87.00
2017-07-26T05:14:18.370Z,86.10
2017-07-26T05:16:46.683Z,85.60
2017-07-26T05:19:15.019Z,85.30
2017-07-26T05:21:43.328Z,85.00
2017-07-26T05:24:11.680Z,85.30
2017-07-26T05:26:39.998Z,85.50
2017-07-26T05:29:08.336Z,84.80
2017-07-26T05:31:36.648Z,83.90
2017-07-26T05:34:04.983Z,82.90
2017-07-26T05:36:33.295Z,82.50
2017-07-26T05:39:01.643Z,82.10
2017-07-26T05:41:29.966Z,82.00
2017-07-26T05:43:58.303Z,81.90
2017-07-26T05:46:26.651Z,82.00
2017-07-26T05:48:55.012Z,81.70
2017-07-26T05:51:23.328Z,81.50
2017-07-26T05:53:51.654Z,81.20
2017-07-26T05:56:19.989Z,81.80
2017-07-26T05:58:48.344Z,81.70
2017-07-26T06:01:16.680Z,81.50
2017-07-26T06:03:45.011Z,81.00
2017-07-26T06:06:13.355Z,80.50
2017-07-26T06:08:41.664Z,79.70
2017-07-26T06:11:09.994Z,79.00
2017-07-26T06:13:38.315Z,78.20
2017-07-26T06:16:06.647Z,77.60
2017-07-26T06:18:34.963Z,77.30
2017-07-26T06:21:03.319Z,76.80
2017-07-26T06:23:31.632Z,77.70
2017-07-26T06:25:59.940Z,78.10
2017-07-26T06:28:28.275Z,78.40
2017-07-26T06:30:56.588Z,78.60
2017-07-26T06:33:24.928Z,78.60
2017-07-26T06:35:53.244Z,78.10
2017-07-26T06:38:21.594Z,78.00
2017-07-26T06:40:49.911Z,77.10
2017-07-26T06:43:18.247Z,76.40
2017-07-26T06:45:46.555Z,76.10
2017-07-26T06:48:14.915Z,76.10
2017-07-26T06:50:43.224Z,76.00
2017-07-26T06:53:11.534Z,75.40
2017-07-26T06:55:39.859Z,76.60
2017-07-26T06:58:08.187Z,77.40
2017-07-26T07:00:36.518Z,77.80
2017-07-26T07:03:04.845Z,77.90
2017-07-26T07:05:33.170Z,78.10
2017-07-26T07:08:01.480Z,77.60
2017-07-26T07:10:29.807Z,76.80
2017-07-26T07:12:58.120Z,75.70
2017-07-26T07:15:26.459Z,74.70
2017-07-26T07:17:54.774Z,73.20
2017-07-26T07:20:23.089Z,73.10
2017-07-26T07:22:51.427Z,73.20
2017-07-26T07:25:19.743Z,71.90
2017-07-26T07:27:48.080Z,70.80
2017-07-26T07:30:16.401Z,70.70
2017-07-26T07:32:43.963Z,70.60
2017-07-26T07:35:12.279Z,70.20
2017-07-26T07:37:40.613Z,69.40
2017-07-26T07:40:08.924Z,68.60
2017-07-26T07:42:37.256Z,68.60
2017-07-26T07:45:05.565Z,67.80
2017-07-26T07:47:33.867Z,66.00
2017-07-26T07:50:02.216Z,65.90
2017-07-26T07:52:30.534Z,65.70
2017-07-26T07:54:58.871Z,66.60
2017-07-26T07:57:27.181Z,66.60
2017-07-26T07:59:55.519Z,66.90
2017-07-26T08:02:23.841Z,67.00
2017-07-26T08:04:52.173Z,68.30
2017-07-26T08:07:20.491Z,67.40
2017-07-26T08:09:48.821Z,66.60
2017-07-26T08:12:17.126Z,66.60
2017-07-26T08:14:45.476Z,67.00
2017-07-26T08:17:13.782Z,66.60
2017-07-26T08:19:41.330Z,66.60
2017-07-26T08:22:09.663Z,66.20
2017-07-26T08:24:37.976Z,67.10
2017-07-26T08:27:06.309Z,67.20
2017-07-26T08:29:34.622Z,66.80
2017-07-26T08:32:02.948Z,66.00
2017-07-26T08:34:31.261Z,65.50
2017-07-26T08:36:59.591Z,66.00
2017-07-26T08:39:27.131Z,66.10
2017-07-26T08:41:55.464Z,64.90
2017-07-26T08:44:23.775Z,64.60
2017-07-26T08:46:52.100Z,65.10
2017-07-26T08:49:19.934Z,64.80
2017-07-26T08:51:48.273Z,65.70
2017-07-26T08:54:16.609Z,66.10
2017-07-26T08:56:44.919Z,67.20
2017-07-26T08:59:13.247Z,67.80
2017-07-26T09:01:41.555Z,68.60
2017-07-26T09:04:09.887Z,68.20
2017-07-26T09:06:38.191Z,69.10
2017-07-26T09:09:06.520Z,69.20
2017-07-26T09:11:34.894Z,70.00
2017-07-26T09:14:03.223Z,70.20
2017-07-26T09:16:31.599Z,69.90
2017-07-26T09:19:00.016Z,70.70
2017-07-26T09:21:28.366Z,69.80
2017-07-26T09:23:56.699Z,68.70
2017-07-26T09:26:25.043Z,67.30
2017-07-26T09:28:53.348Z,66.20
2017-07-26T09:31:21.688Z,65.70
2017-07-26T09:33:50.007Z,63.90
2017-07-26T09:36:18.336Z,63.20
2017-07-26T09:38:46.639Z,62.30
2017-07-26T09:41:14.963Z,62.30
2017-07-26T09:43:43.268Z,62.70
2017-07-26T09:46:11.596Z,63.10
2017-07-26T09:48:39.904Z,63.50
2017-07-26T09:51:08.245Z,65.20
2017-07-26T09:53:36.554Z,65.70
2017-07-26T09:56:04.884Z,66.20
2017-07-26T09:58:33.183Z,66.10
2017-07-26T10:01:01.518Z,66.90
2017-07-26T10:03:29.823Z,67.70
2017-07-26T10:05:58.151Z,66.80
2017-07-26T10:08:26.465Z,66.70
2017-07-26T10:10:54.804Z,66.80
2017-07-26T10:13:23.112Z,65.50
2017-07-26T10:15:51.419Z,64.60
2017-07-26T10:18:19.749Z,64.20
2017-07-26T10:20:48.065Z,62.70
2017-07-26T10:23:16.402Z,61.60
2017-07-26T10:25:44.706Z,61.40
2017-07-26T10:28:13.035Z,60.60
2017-07-26T10:30:40.885Z,60.20
2017-07-26T10:33:09.220Z,59.70
2017-07-26T10:35:37.527Z,58.70
2017-07-26T10:38:05.858Z,58.50
2017-07-26T10:40:34.175Z,57.60
2017-07-26T10:43:01.832Z,57.50
2017-07-26T10:45:30.140Z,58.40
2017-07-26T10:47:58.496Z,58.80
2017-07-26T10:50:26.809Z,57.70
2017-07-26T10:52:55.121Z,57.20
2017-07-26T10:55:23.452Z,56.30
2017-07-26T10:57:51.760Z,53.80
2017-07-26T11:00:20.088Z,54.70
2017-07-26T11:02:48.395Z,54.70
2017-07-26T11:05:16.723Z,53.70
2017-07-26T11:07:45.048Z,52.70
2017-07-26T11:10:13.382Z,53.00
2017-07-26T11:12:41.687Z,53.50
2017-07-26T11:15:10.033Z,54.20
2017-07-26T11:17:38.339Z,52.60
2017-07-26T11:20:06.687Z,53.40
2017-07-26T11:22:34.999Z,52.10
2017-07-26T11:25:03.347Z,50.80
2017-07-26T11:27:31.652Z,49.20
2017-07-26T11:30:00.004Z,49.70
2017-07-26T11:32:28.355Z,49.70
2017-07-26T11:34:56.675Z,51.00
2017-07-26T11:37:25.003Z,50.50
2017-07-26T11:39:53.306Z,48.60
2017-07-26T11:42:21.640Z,48.90
2017-07-26T11:44:49.945Z,49.80
2017-07-26T11:47:18.280Z,50.50
2017-07-26T11:49:46.595Z,49.20
2017-07-26T11:52:14.915Z,49.90
2017-07-26T11:54:43.256Z,48.50
2017-07-26T11:57:11.149Z,44.30
2017-07-26T11:59:39.465Z,43.50
2017-07-26T12:02:07.799Z,43.90
2017-07-26T12:04:36.112Z,44.00
2017-07-26T12:07:03.988Z,44.90
2017-07-26T12:09:32.303Z,45.00
2017-07-26T12:12:00.608Z,44.70
2017-07-26T12:14:28.936Z,45.10
2017-07-26T12:16:57.245Z,45.10
2017-07-26T12:19:25.580Z,44.10
2017-07-26T12:21:53.885Z,44.60
2017-07-26T12:24:22.237Z,45.50
2017-07-26T12:26:50.542Z,45.30
2017-07-26T12:29:18.874Z,43.30
2017-07-26T12:31:47.184Z,42.40
2017-07-26T12:34:14.754Z,42.30
2017-07-26T12:36:43.064Z,42.20
2017-07-26T12:39:11.406Z,43.00
2017-07-26T12:41:39.717Z,43.40
2017-07-26T12:44:08.051Z,43.50
2017-07-26T12:46:36.357Z,43.80
2017-07-26T12:49:04.687Z,42.60
2017-07-26T12:51:32.991Z,43.00
2017-07-26T12:54:01.344Z,42.60
2017-07-26T12:56:29.661Z,44.10
2017-07-26T12:58:57.993Z,44.20
2017-07-26T13:01:26.313Z,43.70
2017-07-26T13:03:54.672Z,43.00
2017-07-26T13:06:22.987Z,42.50
2017-07-26T13:08:51.298Z,42.50
2017-07-26T13:11:19.641Z,42.30
2017-07-26T13:13:47.952Z,41.90
2017-07-26T13:16:16.289Z,41.60
2017-07-26T13:18:44.597Z,41.30
2017-07-26T13:21:12.922Z,41.30
2017-07-26T13:23:41.226Z,41.70
2017-07-26T13:26:09.545Z,41.70
2017-07-26T13:28:37.861Z,41.30
2017-07-26T13:31:06.193Z,40.50
2017-07-26T13:33:34.496Z,41.90
2017-07-26T13:36:02.855Z,43.20
2017-07-26T13:38:31.164Z,43.80
2017-07-26T13:40:59.482Z,42.70
2017-07-26T13:43:27.821Z,43.10
2017-07-26T13:45:56.132Z,42.80
2017-07-26T13:48:24.483Z,42.70
2017-07-26T13:50:52.793Z,41.80
2017-07-26T13:53:21.153Z,41.70
2017-07-26T13:55:49.473Z,42.50
2017-07-26T13:58:17.805Z,42.90
2017-07-26T14:00:46.119Z,42.30
2017-07-26T14:03:14.459Z,43.10
2017-07-26T14:05:42.767Z,43.40
2017-07-26T14:08:11.069Z,43.50
2017-07-26T14:10:39.403Z,42.60
2017-07-26T14:13:07.730Z,42.20
2017-07-26T14:15:36.063Z,41.20
2017-07-26T14:18:04.388Z,40.40
2017-07-26T14:20:32.129Z,40.50
2017-07-26T14:23:00.437Z,39.70
2017-07-26T14:25:28.770Z,40.20
2017-07-26T14:27:57.080Z,40.10
2017-07-26T14:30:25.425Z,40.00
2017-07-26T14:32:53.732Z,38.30
2017-07-26T14:35:22.040Z,37.80
2017-07-26T14:37:50.379Z,37.50
2017-07-26T14:40:18.697Z,37.80
2017-07-26T14:42:45.812Z,37.80
2017-07-26T14:45:14.195Z,38.90
2017-07-26T14:47:42.523Z,37.70
2017-07-26T14:50:10.847Z,37.70
2017-07-26T14:52:39.180Z,37.20
2017-07-26T14:55:07.498Z,38.30
2017-07-26T14:57:35.829Z,40.00
2017-07-26T15:00:04.144Z,41.20
2017-07-26T15:02:32.577Z,40.70
2017-07-26T15:05:00.961Z,41.30
2017-07-26T15:07:29.273Z,41.60
2017-07-26T15:09:57.603Z,40.60
2017-07-26T15:12:25.910Z,41.00
2017-07-26T15:14:53.479Z,41.10
2017-07-26T15:17:21.797Z,40.50
2017-07-26T15:19:50.130Z,40.40
2017-07-26T15:22:18.438Z,41.60
2017-07-26T15:24:46.773Z,41.70
2017-07-26T15:27:15.088Z,41.70
2017-07-26T15:29:43.425Z,41.60
2017-07-26T15:32:11.737Z,41.30
2017-07-26T15:34:40.067Z,40.60
2017-07-26T15:37:08.375Z,40.30
2017-07-26T15:39:36.728Z,41.20
2017-07-26T15:42:05.039Z,41.30
2017-07-26T15:44:33.371Z,41.20
2017-07-26T15:47:01.719Z,41.80
2017-07-26T15:49:30.032Z,40.80
2017-07-26T15:51:58.362Z,40.10
2017-07-26T15:54:26.742Z,39.90
2017-07-26T15:56:55.071Z,41.50
2017-07-26T15:59:23.395Z,42.00
2017-07-26T16:01:51.728Z,41.20
2017-07-26T16:04:20.055Z,41.60
2017-07-26T16:06:48.385Z,42.40
2017-07-26T16:09:16.724Z,42.60
2017-07-26T16:11:45.063Z,42.90
2017-07-26T16:14:13.368Z,43.30
2017-07-26T16:16:41.708Z,42.80
2017-07-26T16:19:10.015Z,42.60
2017-07-26T16:21:38.327Z,42.60
2017-07-26T16:24:06.655Z,42.70
2017-07-26T16:26:34.967Z,42.70
2017-07-26T16:29:03.296Z,42.60
2017-07-26T16:31:31.616Z,41.70
2017-07-26T16:33:59.957Z,41.40
2017-07-26T16:36:28.272Z,41.00
2017-07-26T16:38:56.624Z,40.80
2017-07-26T16:41:24.957Z,40.70
2017-07-26T16:43:53.312Z,40.60
2017-07-26T16:46:21.625Z,41.10
2017-07-26T16:48:50.974Z,40.60
2017-07-26T16:51:18.547Z,41.20
2017-07-26T16:53:46.851Z,41.30
2017-07-26T16:56:15.188Z,41.50
2017-07-26T16:58:43.509Z,42.40
2017-07-26T17:01:11.845Z,43.30
2017-07-26T17:03:40.162Z,44.40
2017-07-26T17:06:08.488Z,45.00
2017-07-26T17:08:36.808Z,45.20
2017-07-26T17:11:05.170Z,45.70
2017-07-26T17:13:33.490Z,45.90
2017-07-26T17:16:01.832Z,46.30
2017-07-26T17:18:30.143Z,46.40
2017-07-26T17:20:58.482Z,46.30
2017-07-26T17:23:26.792Z,45.90
2017-07-26T17:25:55.099Z,44.90
2017-07-26T17:28:23.436Z,45.10
2017-07-26T17:30:51.749Z,45.70
2017-07-26T17:33:20.076Z,45.70
2017-07-26T17:35:48.383Z,45.90
2017-07-26T17:38:16.726Z,46.90
2017-07-26T17:40:45.046Z,46.80
2017-07-26T17:43:13.380Z,47.30
2017-07-26T17:45:41.690Z,47.50
2017-07-26T17:48:10.023Z,48.10
2017-07-26T17:50:38.331Z,48.80
2017-07-26T17:53:06.675Z,49.90
2017-07-26T17:55:34.989Z,50.40
2017-07-26T17:58:03.331Z,50.70
2017-07-26T18:00:31.647Z,50.00
2017-07-26T18:02:59.975Z,50.00
2017-07-26T18:05:28.308Z,49.30
2017-07-26T18:07:56.630Z,48.60
2017-07-26T18:10:24.968Z,48.40
2017-07-26T18:12:53.408Z,48.60
2017-07-26T18:15:21.744Z,48.60
2017-07-26T18:17:50.059Z,48.70
2017-07-26T18:20:18.393Z,49.00
2017-07-26T18:22:46.700Z,49.20
2017-07-26T18:25:15.227Z,49.50
2017-07-26T18:27:43.580Z,49.40
2017-07-26T18:30:11.986Z,49.70
2017-07-26T18:32:40.379Z,50.10
2017-07-26T18:35:08.761Z,50.60
2017-07-26T18:37:37.185Z,51.00
2017-07-26T18:40:05.527Z,51.40
2017-07-26T18:42:33.907Z,51.80
2017-07-26T18:45:02.460Z,52.30
2017-07-26T18:47:30.935Z,53.20
2017-07-26T18:49:59.238Z,54.30
2017-07-26T18:52:27.608Z,54.60
2017-07-26T18:54:55.947Z,54.70
2017-07-26T18:57:24.292Z,55.80
2017-07-26T18:59:52.604Z,56.10
2017-07-26T19:02:20.945Z,56.00
2017-07-26T19:04:49.263Z,56.20
2017-07-26T19:07:17.607Z,55.90
2017-07-26T19:09:45.940Z,56.50
2017-07-26T19:12:14.288Z,56.70
2017-07-26T19:14:42.619Z,57.20
2017-07-26T19:17:10.926Z,57.40
2017-07-26T19:19:39.259Z,58.50
2017-07-26T19:22:07.600Z,59.60
2017-07-26T19:24:35.944Z,59.30
2017-07-26T19:27:04.255Z,59.40
2017-07-26T19:29:32.588Z,60.30
2017-07-26T19:32:00.916Z,60.40
2017-07-26T19:34:29.248Z,61.30
2017-07-26T19:36:57.559Z,62.50
2017-07-26T19:39:25.893Z,63.70
2017-07-26T19:41:54.200Z,64.10
2017-07-26T19:44:22.543Z,63.80
2017-07-26T19:46:50.861Z,64.50
2017-07-26T19:49:19.181Z,65.20
2017-07-26T19:51:47.512Z,63.70
2017-07-26T19:54:15.828Z,64.50
2017-07-26T19:56:44.159Z,64.90
2017-07-26T19:59:12.475Z,63.20
2017-07-26T20:01:40.805Z,63.00
2017-07-26T20:04:09.115Z,63.30
2017-07-26T20:06:37.455Z,63.80
2017-07-26T20:09:05.768Z,65.20
2017-07-26T20:11:34.106Z,64.80
2017-07-26T20:14:02.416Z,64.50
2017-07-26T20:16:30.768Z,64.20
2017-07-26T20:18:59.075Z,63.70
2017-07-26T20:21:27.379Z,63.40
2017-07-26T20:23:55.707Z,62.40
2017-07-26T20:26:24.018Z,61.20
2017-07-26T20:28:52.347Z,61.40
2017-07-26T20:31:20.648Z,61.60
2017-07-26T20:33:48.984Z,62.40
2017-07-26T20:36:17.288Z,62.20
2017-07-26T20:38:45.619Z,62.50
2017-07-26T20:41:13.163Z,62.60
2017-07-26T20:43:41.498Z,62.90
2017-07-26T20:46:09.812Z,62.90
2017-07-26T20:48:38.148Z,62.50
2017-07-26T20:51:06.467Z,61.60
2017-07-26T20:53:34.799Z,61.80
2017-07-26T20:56:03.101Z,61.90
2017-07-26T20:58:31.425Z,61.70
2017-07-26T21:00:59.795Z,61.80
2017-07-26T21:03:28.108Z,62.10
2017-07-26T21:05:56.443Z,62.30
2017-07-26T21:08:24.751Z,63.30
2017-07-26T21:10:53.089Z,62.30
2017-07-26T21:13:21.407Z,62.30
2017-07-26T21:15:49.745Z,62.60
2017-07-26T21:18:18.062Z,62.50
2017-07-26T21:20:46.400Z,62.80
2017-07-26T21:23:14.722Z,62.80
2017-07-26T21:25:43.064Z,63.30
2017-07-26T21:28:11.386Z,63.40
2017-07-26T21:30:39.703Z,63.70
2017-07-26T21:33:08.040Z,64.10
2017-07-26T21:35:36.360Z,64.40
2017-07-26T21:38:04.699Z,64.70
2017-07-26T21:40:33.023Z,64.90
2017-07-26T21:43:01.360Z,65.20
2017-07-26T21:45:29.672Z,65.50
2017-07-26T21:47:58.014Z,65.80
2017-07-26T21:50:26.332Z,66.10
2017-07-26T21:52:54.664Z,66.60
2017-07-26T21:55:22.976Z,66.80
2017-07-26T21:57:51.308Z,67.30
2017-07-26T22:00:19.629Z,67.60
2017-07-26T22:02:47.941Z,67.90
2017-07-26T22:05:16.282Z,68.20
2017-07-26T22:07:44.591Z,68.80
2017-07-26T22:10:12.920Z,68.90
2017-07-26T22:12:41.232Z,69.10
2017-07-26T22:15:09.579Z,69.10
2017-07-26T22:17:37.886Z,69.80
2017-07-26T22:20:06.221Z,69.20
2017-07-26T22:22:34.530Z,69.50
2017-07-26T22:25:02.869Z,69.60
2017-07-26T22:27:31.181Z,69.90
2017-07-26T22:29:59.517Z,70.20
2017-07-26T22:32:27.827Z,70.40
2017-07-26T22:34:56.165Z,70.90
2017-07-26T22:37:24.475Z,71.00
2017-07-26T22:39:52.820Z,71.40
2017-07-26T22:42:21.131Z,72.00
2017-07-26T22:44:49.451Z,72.60
2017-07-26T22:47:17.788Z,74.10
2017-07-26T22:49:46.106Z,74.70
2017-07-26T22:52:14.532Z,75.50
2017-07-26T22:54:42.847Z,76.20
2017-07-26T22:57:11.198Z,76.60
2017-07-26T22:59:39.511Z,76.90
2017-07-26T23:02:07.853Z,78.30
2017-07-26T23:04:36.170Z,77.40
2017-07-26T23:07:04.503Z,77.70
2017-07-26T23:09:32.821Z,77.80
2017-07-26T23:12:01.164Z,78.10
2017-07-26T23:14:29.477Z,78.20
2017-07-26T23:16:57.786Z,78.40
2017-07-26T23:19:26.116Z,78.50
2017-07-26T23:21:54.423Z,78.30
2017-07-26T23:24:22.750Z,78.40
2017-07-26T23:26:51.072Z,78.60
2017-07-26T23:29:19.402Z,78.60
2017-07-26T23:31:47.715Z,78.70
2017-07-26T23:34:16.049Z,78.70
2017-07-26T23:36:44.357Z,78.80
2017-07-26T23:39:12.682Z,78.80
2017-07-26T23:41:40.987Z,78.80
2017-07-26T23:44:09.329Z,78.80
2017-07-26T23:46:37.631Z,78.90
2017-07-26T23:49:05.936Z,79.20
2017-07-26T23:51:34.261Z,79.20
2017-07-26T23:54:01.812Z,79.20
2017-07-26T23:56:30.148Z,79.30
2017-07-26T23:58:58.446Z,79.30
